This is the latest recevied weather packets stored in our database for station/object E24MSQ-13. If no packets are shown the sender has not sent any weather packets the latest 10 day(s).
| Time | Temp. | Humidity | Pressure | Rain* | Wind** | Luminosity | Snow |
|---|---|---|---|---|---|---|---|
| 1777919880 | 26.67° C | 83% | 1010 hPa | - | - | 0 W/m² | - |
| 1777918956 | 26.67° C | 81% | 1011 hPa | - | - | 0 W/m² | - |
| 1777918032 | 27.22° C | 83% | 1011 hPa | - | - | 0 W/m² | - |
| 1777917107 | 26.67° C | 83% | 1011 hPa | - | - | 0 W/m² | - |
| 1777916183 | 27.22° C | 82% | 1012 hPa | - | - | 0 W/m² | - |
| 1777915258 | 26.67° C | 83% | 1013 hPa | - | - | 0 W/m² | - |
| 1777914334 | 27.78° C | 80% | 1013 hPa | - | - | 0 W/m² | - |
| 1777913410 | 28.33° C | 80% | 1014 hPa | - | - | 0 W/m² | - |
| 1777912485 | 28.33° C | 78% | 1013 hPa | - | - | 0 W/m² | - |
| 1777911561 | 30.56° C | 70% | 1013 hPa | - | - | 0 W/m² | - |
| 1777910636 | 30.56° C | 69% | 1012 hPa | - | - | 0 W/m² | - |
| 1777909712 | 31.11° C | 68% | 1012 hPa | - | - | 0 W/m² | - |
| 1777908788 | 31.11° C | 68% | 1012 hPa | - | - | 0 W/m² | - |
| 1777907863 | 31.11° C | 69% | 1012 hPa | - | - | 0 W/m² | - |
| 1777906939 | 31.11° C | 68% | 1011 hPa | - | - | 0 W/m² | - |
| 1777906014 | 31.11° C | 68% | 1011 hPa | - | - | 0 W/m² | - |
| 1777905090 | 31.11° C | 69% | 1011 hPa | - | - | 0 W/m² | - |
| 1777904166 | 31.11° C | 68% | 1011 hPa | - | - | 0 W/m² | - |
| 1777903241 | 31.11° C | 67% | 1011 hPa | - | - | 0 W/m² | - |
| 1777902317 | 31.11° C | 66% | 1010 hPa | - | - | 0 W/m² | - |
| 1777901393 | 31.11° C | 65% | 1010 hPa | - | - | 0 W/m² | - |
| 1777900468 | 31.11° C | 65% | 1010 hPa | - | - | 0 W/m² | - |
| 1777899544 | 31.11° C | 66% | 1009 hPa | - | - | 0 W/m² | - |
| 1777898619 | 31.11° C | 66% | 1009 hPa | - | - | 0 W/m² | - |
| 1777897695 | 31.67° C | 66% | 1008 hPa | - | - | 0 W/m² | - |
* Rain since midnight (hover to see other rain measurements)
** Current wind speed in m/s (hover to see current wind gust speed)